createdAt,value
2022-11-19T00:02:00.999Z,20.47
2022-11-19T00:04:30.374Z,21.70
2022-11-19T00:06:58.527Z,20.00
2022-11-19T00:09:26.603Z,22.47
2022-11-19T00:12:12.008Z,20.20
2022-11-19T00:14:40.061Z,22.17
2022-11-19T00:17:08.032Z,22.47
2022-11-19T00:19:37.336Z,20.53
2022-11-19T00:22:05.291Z,25.37
2022-11-19T00:24:33.325Z,24.03
2022-11-19T00:27:01.382Z,24.00
2022-11-19T00:29:29.370Z,26.13
2022-11-19T00:31:57.337Z,25.53
2022-11-19T00:34:25.304Z,24.30
2022-11-19T00:36:54.643Z,22.10
2022-11-19T00:39:22.953Z,21.47
2022-11-19T00:41:51.120Z,26.17
2022-11-19T00:44:19.118Z,21.47
2022-11-19T00:46:47.106Z,22.40
2022-11-19T00:49:15.277Z,25.40
2022-11-19T00:51:43.464Z,23.23
2022-11-19T00:54:12.810Z,23.83
2022-11-19T00:56:40.805Z,22.77
2022-11-19T00:59:08.988Z,24.60
2022-11-19T01:01:37.088Z,24.00
2022-11-19T01:04:06.191Z,23.57
2022-11-19T01:06:34.307Z,24.90
2022-11-19T01:09:02.285Z,25.97
2022-11-19T01:11:33.604Z,27.07
2022-11-19T01:14:02.721Z,26.27
2022-11-19T01:16:32.417Z,25.03
2022-11-19T01:19:00.598Z,24.03
2022-11-19T01:21:32.050Z,26.03
2022-11-19T01:24:01.110Z,29.90
2022-11-19T01:26:29.863Z,23.50
2022-11-19T01:28:59.290Z,19.57
2022-11-19T01:31:29.882Z,24.97
2022-11-19T01:33:58.375Z,23.30
2022-11-19T01:36:28.385Z,21.97
2022-11-19T01:38:57.006Z,25.30
2022-11-19T01:41:27.098Z,25.47
2022-11-19T01:43:59.116Z,25.90
2022-11-19T01:46:29.885Z,20.70
2022-11-19T01:49:02.774Z,22.43
2022-11-19T01:51:33.749Z,29.17
2022-11-19T01:54:06.097Z,23.03
2022-11-19T01:56:34.169Z,24.03
2022-11-19T01:59:06.814Z,26.90
2022-11-19T02:01:36.240Z,25.03
2022-11-19T02:04:06.106Z,23.80
2022-11-19T02:06:35.677Z,26.07
2022-11-19T02:09:03.762Z,25.27
2022-11-19T02:12:03.809Z,22.47
2022-11-19T02:14:54.826Z,26.23
2022-11-19T02:17:34.824Z,25.90
2022-11-19T02:20:34.237Z,23.00
2022-11-19T02:23:31.547Z,25.77
2022-11-19T02:26:19.296Z,26.00
2022-11-19T02:28:51.869Z,28.67
2022-11-19T02:31:25.554Z,29.50
2022-11-19T02:33:58.841Z,27.03
2022-11-19T02:36:30.395Z,30.00
2022-11-19T02:39:05.898Z,28.20
2022-11-19T02:41:38.770Z,28.17
2022-11-19T02:44:37.245Z,26.70
2022-11-19T02:47:11.407Z,28.03
2022-11-19T02:49:44.040Z,23.90
2022-11-19T02:52:13.064Z,28.73
2022-11-19T02:54:41.854Z,27.57
2022-11-19T02:57:11.498Z,27.07
2022-11-19T02:59:59.999Z,28.30
2022-11-19T03:02:52.337Z,26.73
2022-11-19T03:05:23.156Z,24.87
2022-11-19T03:07:51.527Z,27.27
2022-11-19T03:10:22.156Z,27.73
2022-11-19T03:12:54.652Z,22.93
2022-11-19T03:16:05.406Z,26.27
2022-11-19T03:18:40.350Z,27.13
2022-11-19T03:21:12.762Z,24.97
2022-11-19T03:23:44.142Z,27.40
2022-11-19T03:26:20.928Z,27.37
2022-11-19T03:28:50.199Z,22.63
2022-11-19T03:31:19.965Z,28.47
2022-11-19T03:33:53.464Z,25.63
2022-11-19T03:36:24.808Z,25.27
2022-11-19T03:38:56.767Z,26.23
2022-11-19T03:41:26.774Z,26.03
2022-11-19T03:43:58.604Z,25.70
2022-11-19T03:46:28.675Z,26.63
2022-11-19T03:49:00.122Z,28.00
2022-11-19T03:51:33.797Z,26.73
2022-11-19T03:54:01.814Z,26.73
2022-11-19T03:56:32.097Z,26.23
2022-11-19T03:59:00.688Z,29.77
2022-11-19T04:01:28.722Z,30.10
2022-11-19T04:04:15.642Z,27.97
2022-11-19T04:06:43.587Z,24.73
2022-11-19T04:09:11.686Z,26.17
2022-11-19T04:11:39.712Z,26.60
2022-11-19T04:14:07.721Z,25.77
2022-11-19T04:16:35.670Z,28.33
2022-11-19T04:19:05.014Z,28.80
2022-11-19T04:21:33.004Z,25.90
2022-11-19T04:24:00.971Z,23.50
2022-11-19T04:26:28.927Z,30.43
2022-11-19T04:28:56.911Z,25.63
2022-11-19T04:31:24.875Z,26.63
2022-11-19T04:33:52.833Z,28.87
2022-11-19T04:36:22.198Z,26.90
2022-11-19T04:38:50.182Z,25.00
2022-11-19T04:41:18.155Z,25.37
2022-11-19T04:43:46.149Z,29.97
2022-11-19T04:46:14.132Z,25.30
2022-11-19T04:48:42.167Z,26.00
2022-11-19T04:51:10.125Z,31.87
2022-11-19T04:53:39.515Z,28.87
2022-11-19T04:56:07.907Z,27.17
2022-11-19T04:58:35.956Z,29.90
2022-11-19T05:01:04.533Z,26.83
2022-11-19T05:03:32.631Z,29.23
2022-11-19T05:06:00.730Z,26.27
2022-11-19T05:08:28.737Z,29.03
2022-11-19T05:10:58.084Z,28.23
2022-11-19T05:13:26.014Z,29.23
2022-11-19T05:15:53.979Z,27.47
2022-11-19T05:18:21.945Z,35.47
2022-11-19T05:20:49.951Z,34.83
2022-11-19T05:23:17.956Z,31.10
2022-11-19T05:25:45.923Z,32.37
2022-11-19T05:28:15.252Z,31.10
2022-11-19T05:30:43.252Z,34.73
2022-11-19T05:33:11.221Z,37.37
2022-11-19T05:35:39.236Z,37.60
2022-11-19T05:38:08.460Z,35.67
2022-11-19T05:40:36.453Z,38.60
2022-11-19T05:43:08.156Z,31.17
2022-11-19T05:45:37.514Z,29.83
2022-11-19T05:48:05.914Z,30.77
2022-11-19T05:50:33.894Z,31.47
2022-11-19T05:53:01.861Z,28.37
2022-11-19T05:55:29.831Z,28.27
2022-11-19T05:57:57.801Z,33.47
2022-11-19T06:00:25.812Z,32.23
2022-11-19T06:02:55.273Z,34.10
2022-11-19T06:05:23.292Z,31.00
2022-11-19T06:07:51.258Z,40.27
2022-11-19T06:10:19.415Z,40.83
2022-11-19T06:12:47.459Z,36.33
2022-11-19T06:15:15.907Z,37.80
2022-11-19T06:17:43.874Z,35.33
2022-11-19T06:20:13.661Z,32.60
2022-11-19T06:22:41.653Z,32.53
2022-11-19T06:25:10.357Z,35.93
2022-11-19T06:27:38.313Z,31.23
2022-11-19T06:30:07.617Z,34.83
2022-11-19T06:32:35.737Z,35.33
2022-11-19T06:35:03.784Z,30.73
2022-11-19T06:37:33.106Z,33.40
2022-11-19T06:40:01.066Z,33.17
2022-11-19T06:42:37.817Z,32.07
2022-11-19T06:45:07.647Z,31.97
2022-11-19T06:47:35.794Z,34.53
2022-11-19T06:50:04.353Z,34.87
2022-11-19T06:52:33.702Z,36.37
2022-11-19T06:55:01.722Z,38.23
2022-11-19T06:57:29.727Z,38.03
2022-11-19T06:59:57.931Z,44.53
2022-11-19T07:02:25.886Z,60.00
2022-11-19T07:04:53.866Z,56.70
2022-11-19T07:07:22.174Z,45.67
2022-11-19T07:09:51.640Z,45.87
2022-11-19T07:12:19.615Z,45.47
2022-11-19T07:14:47.596Z,52.23
2022-11-19T07:17:15.584Z,49.10
2022-11-19T07:19:43.548Z,45.27
2022-11-19T07:22:11.588Z,51.23
2022-11-19T07:24:39.567Z,46.63
2022-11-19T07:27:08.906Z,44.77
2022-11-19T07:29:38.770Z,46.63
2022-11-19T07:32:06.860Z,45.57
2022-11-19T07:34:34.829Z,43.50
2022-11-19T07:37:03.079Z,40.90
2022-11-19T07:39:31.035Z,40.17
2022-11-19T07:42:16.609Z,39.90
2022-11-19T07:44:47.909Z,43.73
2022-11-19T07:47:17.839Z,39.07
2022-11-19T07:49:45.840Z,37.93
2022-11-19T07:52:13.803Z,35.10
2022-11-19T07:54:41.825Z,34.67
2022-11-19T07:57:10.782Z,33.23
2022-11-19T07:59:38.848Z,35.67
2022-11-19T08:02:08.244Z,34.23
2022-11-19T08:04:36.248Z,35.93
2022-11-19T08:07:04.289Z,48.37
2022-11-19T08:09:32.321Z,34.80
2022-11-19T08:12:00.333Z,39.40
2022-11-19T08:14:29.019Z,36.57
2022-11-19T08:17:14.860Z,31.43
2022-11-19T08:19:44.180Z,33.83
2022-11-19T08:22:12.302Z,30.50
2022-11-19T08:24:40.326Z,29.87
2022-11-19T08:27:08.307Z,28.67
2022-11-19T08:29:36.274Z,24.67
2022-11-19T08:32:04.339Z,22.57
2022-11-19T08:34:32.896Z,29.90
2022-11-19T08:37:02.252Z,29.93
2022-11-19T08:39:30.767Z,29.97
2022-11-19T08:42:16.382Z,29.57
2022-11-19T08:44:44.360Z,31.17
2022-11-19T08:47:12.341Z,29.87
2022-11-19T08:49:40.286Z,31.27
2022-11-19T08:52:09.752Z,32.27
2022-11-19T08:54:37.692Z,29.77
2022-11-19T08:57:05.726Z,31.30
2022-11-19T08:59:33.697Z,33.57
2022-11-19T09:02:01.658Z,29.63
2022-11-19T09:04:29.669Z,35.97
2022-11-19T09:06:58.309Z,34.03
2022-11-19T09:09:27.703Z,35.67
2022-11-19T09:11:56.391Z,33.50
2022-11-19T09:14:24.367Z,34.57
2022-11-19T09:16:52.408Z,34.70
2022-11-19T09:19:20.599Z,31.23
2022-11-19T09:21:48.918Z,36.10
2022-11-19T09:24:17.138Z,29.33
2022-11-19T09:26:52.457Z,34.33
2022-11-19T09:29:20.961Z,28.93
2022-11-19T09:31:49.054Z,27.83
2022-11-19T09:34:17.336Z,30.90
2022-11-19T09:36:45.461Z,27.50
2022-11-19T09:39:13.735Z,27.00
2022-11-19T09:41:51.486Z,27.87
2022-11-19T09:44:40.323Z,31.80
2022-11-19T09:47:22.028Z,32.73
2022-11-19T09:50:00.944Z,29.57
2022-11-19T09:52:33.846Z,36.77
2022-11-19T09:55:03.006Z,37.30
2022-11-19T09:57:37.852Z,37.73
2022-11-19T10:00:09.093Z,44.37
2022-11-19T10:02:37.176Z,36.23
2022-11-19T10:05:05.573Z,39.57
2022-11-19T10:07:41.950Z,36.17
2022-11-19T10:10:26.030Z,34.90
2022-11-19T10:13:12.781Z,33.67
2022-11-19T10:15:55.057Z,31.03
2022-11-19T10:18:34.041Z,38.70
2022-11-19T10:21:10.086Z,31.93
2022-11-19T10:23:49.678Z,32.47
2022-11-19T10:26:19.490Z,35.80
2022-11-19T10:28:54.922Z,31.43
2022-11-19T10:31:30.201Z,34.13
2022-11-19T10:34:05.697Z,33.40
2022-11-19T10:36:41.186Z,33.57
2022-11-19T10:39:17.961Z,32.03
2022-11-19T10:41:51.678Z,39.27
2022-11-19T10:44:45.158Z,33.73
2022-11-19T10:47:19.131Z,35.60
2022-11-19T10:49:52.214Z,34.77
2022-11-19T10:52:28.340Z,32.33
2022-11-19T10:55:02.131Z,36.70
2022-11-19T10:57:33.386Z,35.53
2022-11-19T11:00:03.939Z,48.00
2022-11-19T11:02:37.723Z,44.90
2022-11-19T11:05:13.310Z,37.93
2022-11-19T11:08:02.066Z,35.03
2022-11-19T11:10:42.677Z,34.43
2022-11-19T11:13:37.661Z,39.13
2022-11-19T11:16:09.278Z,31.60
2022-11-19T11:18:40.733Z,33.80
2022-11-19T11:21:13.625Z,27.23
2022-11-19T11:23:52.246Z,29.23
2022-11-19T11:26:24.137Z,27.63
2022-11-19T11:28:58.027Z,29.27
2022-11-19T11:31:40.058Z,30.60
2022-11-19T11:34:14.727Z,31.57
2022-11-19T11:36:44.189Z,30.87
2022-11-19T11:39:25.600Z,34.23
2022-11-19T11:42:05.402Z,30.90
2022-11-19T11:44:36.737Z,31.83
2022-11-19T11:47:13.414Z,25.90
2022-11-19T11:49:44.051Z,23.97
2022-11-19T11:52:20.211Z,26.33
2022-11-19T11:54:59.421Z,20.27
2022-11-19T11:57:29.754Z,25.90
2022-11-19T11:59:58.071Z,21.40
2022-11-19T12:02:31.152Z,27.60
2022-11-19T12:05:02.614Z,23.77
2022-11-19T12:07:51.030Z,26.43
2022-11-19T12:10:27.473Z,31.90
2022-11-19T12:13:17.642Z,28.80
2022-11-19T12:15:55.600Z,26.70
2022-11-19T12:18:34.734Z,25.33
2022-11-19T12:21:11.791Z,27.87
2022-11-19T12:23:55.788Z,28.40
2022-11-19T12:26:33.449Z,36.53
2022-11-19T12:29:14.769Z,39.20
2022-11-19T12:31:56.696Z,33.63
2022-11-19T12:34:55.467Z,24.20
2022-11-19T12:37:39.161Z,23.97
2022-11-19T12:40:21.562Z,22.37
2022-11-19T12:42:57.948Z,21.47
2022-11-19T12:45:36.850Z,25.93
2022-11-19T12:48:30.949Z,23.77
2022-11-19T12:51:04.449Z,27.10
2022-11-19T12:53:43.465Z,25.23
2022-11-19T12:56:23.049Z,21.50
2022-11-19T12:59:02.311Z,22.33
2022-11-19T13:01:35.057Z,25.47
2022-11-19T13:04:12.416Z,20.03
2022-11-19T13:06:46.279Z,23.90
2022-11-19T13:09:19.614Z,20.23
2022-11-19T13:11:52.748Z,24.67
2022-11-19T13:14:28.719Z,22.40
2022-11-19T13:16:58.062Z,24.57
2022-11-19T13:19:30.572Z,24.03
2022-11-19T13:22:05.499Z,27.93
2022-11-19T13:24:38.177Z,29.50
2022-11-19T13:27:11.773Z,26.90
2022-11-19T13:29:45.656Z,23.23
2022-11-19T13:32:20.137Z,23.33
2022-11-19T13:35:02.515Z,23.87
2022-11-19T13:37:44.697Z,23.90
2022-11-19T13:40:23.227Z,24.10
2022-11-19T13:46:07.968Z,24.87
2022-11-19T13:48:40.726Z,25.07
2022-11-19T13:51:24.749Z,25.83
2022-11-19T13:54:02.352Z,24.97
2022-11-19T13:56:41.640Z,23.10
2022-11-19T13:59:22.849Z,31.33
2022-11-19T14:02:10.458Z,25.13
2022-11-19T14:04:56.675Z,31.83
2022-11-19T14:07:39.506Z,32.17
2022-11-19T14:10:20.359Z,31.47
2022-11-19T14:13:04.143Z,37.67
2022-11-19T14:16:05.408Z,37.63
2022-11-19T14:18:56.577Z,51.23
2022-11-19T14:22:15.137Z,47.27
2022-11-19T14:25:14.966Z,48.40
2022-11-19T14:27:44.910Z,44.23
2022-11-19T14:30:18.788Z,35.00
2022-11-19T14:32:52.288Z,32.17
2022-11-19T14:35:34.112Z,37.37
2022-11-19T14:38:34.220Z,35.90
2022-11-19T14:41:32.136Z,30.90
2022-11-19T14:44:09.538Z,27.03
2022-11-19T14:46:39.728Z,29.00
2022-11-19T14:49:33.267Z,36.73
2022-11-19T14:52:02.412Z,30.87
2022-11-19T14:54:34.186Z,29.60
2022-11-19T14:57:06.372Z,27.80
2022-11-19T14:59:40.053Z,28.93
2022-11-19T15:02:19.768Z,30.80
2022-11-19T15:05:04.822Z,31.03
2022-11-19T15:07:42.313Z,30.10
2022-11-19T15:10:32.225Z,31.37
2022-11-19T15:13:23.065Z,33.77
2022-11-19T15:15:59.924Z,39.50
2022-11-19T15:18:55.171Z,35.60
2022-11-19T15:21:40.513Z,31.60
2022-11-19T15:24:21.524Z,29.63
2022-11-19T15:26:56.940Z,31.13
2022-11-19T15:29:44.269Z,32.33
2022-11-19T15:32:22.877Z,34.07
2022-11-19T15:35:11.875Z,38.30
2022-11-19T15:37:46.940Z,35.07
2022-11-19T15:40:17.924Z,30.73
2022-11-19T15:42:52.834Z,32.63
2022-11-19T15:45:24.384Z,34.30
2022-11-19T15:47:58.473Z,35.50
2022-11-19T15:50:29.073Z,31.47
2022-11-19T15:53:01.221Z,38.57
2022-11-19T15:55:30.948Z,40.60
2022-11-19T15:58:03.824Z,35.97
2022-11-19T16:00:32.112Z,41.17
2022-11-19T16:03:03.858Z,42.20
2022-11-19T16:05:32.864Z,41.87
2022-11-19T16:08:06.358Z,41.40
2022-11-19T16:10:36.615Z,40.73
2022-11-19T16:13:37.987Z,42.13
2022-11-19T16:16:37.772Z,45.30
2022-11-19T16:19:07.452Z,50.07
2022-11-19T16:21:38.950Z,44.23
2022-11-19T16:24:32.082Z,45.73
2022-11-19T16:27:02.116Z,51.10
2022-11-19T16:29:30.840Z,49.73
2022-11-19T16:32:00.635Z,44.13
2022-11-19T16:34:32.459Z,45.07
2022-11-19T16:37:00.852Z,47.30
2022-11-19T16:39:30.760Z,49.13
2022-11-19T16:42:17.954Z,51.70
2022-11-19T16:44:48.211Z,49.93
2022-11-19T16:47:21.360Z,51.90
2022-11-19T16:50:06.283Z,53.40
2022-11-19T16:52:39.873Z,55.93
2022-11-19T16:55:50.477Z,54.00
2022-11-19T16:58:28.844Z,55.40
2022-11-19T17:00:59.591Z,60.20
2022-11-19T17:03:35.221Z,51.77
2022-11-19T17:06:06.034Z,57.57
2022-11-19T17:08:36.441Z,58.27
2022-11-19T17:11:36.881Z,60.97
2022-11-19T17:14:24.648Z,59.30
2022-11-19T17:16:54.162Z,65.00
2022-11-19T17:19:27.317Z,60.43
2022-11-19T17:22:01.482Z,64.00
2022-11-19T17:24:32.831Z,59.50
2022-11-19T17:27:01.228Z,62.27
2022-11-19T17:29:29.206Z,56.77
2022-11-19T17:31:57.899Z,66.23
2022-11-19T17:34:31.965Z,66.17
2022-11-19T17:37:01.520Z,74.07
2022-11-19T17:39:29.488Z,64.83
2022-11-19T17:42:14.966Z,61.53
2022-11-19T17:44:43.150Z,65.63
2022-11-19T17:47:21.934Z,72.10
2022-11-19T17:49:51.555Z,69.40
2022-11-19T17:52:25.383Z,74.77
2022-11-19T17:54:56.106Z,76.17
2022-11-19T17:57:24.160Z,79.33
2022-11-19T17:59:52.104Z,82.00
2022-11-19T18:02:21.707Z,80.73
2022-11-19T18:04:50.189Z,80.67
2022-11-19T18:07:18.215Z,89.23
2022-11-19T18:09:47.622Z,85.90
2022-11-19T18:12:18.145Z,78.90
2022-11-19T18:14:46.695Z,74.67
2022-11-19T18:17:16.140Z,77.03
2022-11-19T18:19:44.135Z,64.97
2022-11-19T18:22:18.214Z,71.17
2022-11-19T18:24:49.795Z,60.17
2022-11-19T18:27:18.217Z,66.90
2022-11-19T18:29:46.180Z,62.90
2022-11-19T18:32:16.904Z,63.33
2022-11-19T18:34:45.927Z,61.03
2022-11-19T18:37:13.974Z,63.77
2022-11-19T18:39:41.938Z,63.57
2022-11-19T18:42:12.919Z,58.53
2022-11-19T18:44:41.761Z,57.23
2022-11-19T18:47:11.455Z,56.20
2022-11-19T18:49:40.037Z,55.10
2022-11-19T18:52:12.364Z,54.80
2022-11-19T18:54:40.323Z,56.80
2022-11-19T18:57:08.330Z,60.63
2022-11-19T18:59:37.707Z,57.23
2022-11-19T19:02:06.271Z,54.53
2022-11-19T19:04:34.268Z,56.93
2022-11-19T19:07:02.382Z,63.73
2022-11-19T19:09:30.374Z,60.20
2022-11-19T19:12:15.945Z,68.57
2022-11-19T19:14:46.094Z,73.90
2022-11-19T19:17:15.309Z,73.67
2022-11-19T19:19:43.603Z,66.93
2022-11-19T19:22:11.991Z,71.47
2022-11-19T19:24:40.052Z,66.40
2022-11-19T19:27:08.391Z,74.77
2022-11-19T19:29:36.342Z,77.33
2022-11-19T19:32:06.183Z,73.53
2022-11-19T19:34:34.392Z,70.80
2022-11-19T19:37:02.373Z,66.50
2022-11-19T19:39:30.449Z,59.73
2022-11-19T19:41:58.437Z,64.57
2022-11-19T19:44:26.410Z,71.17
2022-11-19T19:46:54.392Z,63.27
2022-11-19T19:49:24.125Z,63.37
2022-11-19T19:51:52.320Z,61.90
2022-11-19T19:54:20.327Z,61.07
2022-11-19T19:56:48.541Z,64.27
2022-11-19T19:59:16.674Z,61.80
2022-11-19T20:01:47.437Z,65.10
2022-11-19T20:04:15.764Z,61.40
2022-11-19T20:06:47.808Z,64.97
2022-11-19T20:09:15.853Z,66.83
2022-11-19T20:11:43.861Z,74.87
2022-11-19T20:14:11.979Z,69.83
2022-11-19T20:16:41.457Z,70.83
2022-11-19T20:19:12.884Z,69.50
2022-11-19T20:21:40.873Z,72.10
2022-11-19T20:24:12.971Z,62.83
2022-11-19T20:26:42.154Z,67.73
2022-11-19T20:29:12.825Z,78.00
2022-11-19T20:31:41.546Z,72.13
2022-11-19T20:34:12.019Z,71.90
2022-11-19T20:36:40.112Z,74.17
2022-11-19T20:39:08.195Z,71.67
2022-11-19T20:41:54.983Z,74.57
2022-11-19T20:44:23.480Z,82.33
2022-11-19T20:46:53.293Z,80.60
2022-11-19T20:49:22.853Z,83.97
2022-11-19T20:51:52.597Z,80.80
2022-11-19T20:54:21.499Z,75.20
2022-11-19T20:56:51.926Z,76.33
2022-11-19T20:59:20.949Z,80.53
2022-11-19T21:01:50.078Z,75.77
2022-11-19T21:04:18.489Z,71.90
2022-11-19T21:06:46.873Z,77.30
2022-11-19T21:09:15.935Z,79.57
2022-11-19T21:11:44.491Z,81.60
2022-11-19T21:14:13.821Z,85.83
2022-11-19T21:16:42.008Z,77.67
2022-11-19T21:19:10.503Z,76.23
2022-11-19T21:21:38.958Z,73.10
2022-11-19T21:24:08.076Z,79.40
2022-11-19T21:26:36.286Z,84.00
2022-11-19T21:29:04.661Z,78.70
2022-11-19T21:31:42.683Z,78.80
2022-11-19T21:34:12.853Z,93.70
2022-11-19T21:36:43.061Z,81.77
2022-11-19T21:39:12.231Z,86.80
2022-11-19T21:41:40.305Z,85.17
2022-11-19T21:44:08.390Z,81.00
2022-11-19T21:46:38.445Z,85.20
2022-11-19T21:49:06.620Z,88.77
2022-11-19T21:51:35.250Z,82.63
2022-11-19T21:54:03.196Z,78.87
2022-11-19T21:56:35.532Z,88.03
2022-11-19T21:59:06.687Z,88.20
2022-11-19T22:01:34.754Z,92.43
2022-11-19T22:04:04.398Z,84.97
2022-11-19T22:06:33.017Z,92.23
2022-11-19T22:09:01.010Z,87.97
2022-11-19T22:11:32.318Z,86.87
2022-11-19T22:14:02.142Z,96.27
2022-11-19T22:16:30.622Z,86.47
2022-11-19T22:18:58.567Z,85.33
2022-11-19T22:21:29.072Z,81.40
2022-11-19T22:26:42.644Z,105.77
2022-11-19T22:29:10.841Z,118.27
2022-11-19T22:31:38.804Z,99.93
2022-11-19T22:34:06.787Z,100.47
2022-11-19T22:36:36.126Z,89.53
2022-11-19T22:39:04.256Z,91.33
2022-11-19T22:41:32.199Z,95.07
2022-11-19T22:44:00.209Z,90.33
2022-11-19T22:46:28.755Z,86.67
2022-11-19T22:48:56.994Z,87.07
2022-11-19T22:51:26.341Z,84.87
2022-11-19T22:53:56.632Z,83.60
2022-11-19T22:56:26.889Z,82.93
2022-11-19T22:58:55.817Z,86.60
2022-11-19T23:01:25.826Z,84.60
2022-11-19T23:03:54.759Z,86.43
2022-11-19T23:06:23.893Z,79.77
2022-11-19T23:08:52.596Z,81.93
2022-11-19T23:11:43.246Z,82.00
2022-11-19T23:14:12.209Z,82.27
2022-11-19T23:16:40.705Z,82.77
2022-11-19T23:19:09.661Z,83.80
2022-11-19T23:21:38.116Z,79.13
2022-11-19T23:24:06.834Z,81.47
2022-11-19T23:26:36.450Z,92.17
2022-11-19T23:29:04.984Z,96.63
2022-11-19T23:31:34.909Z,95.23
2022-11-19T23:34:03.031Z,102.90
2022-11-19T23:36:32.986Z,99.60
2022-11-19T23:39:01.133Z,102.63
2022-11-19T23:41:29.355Z,104.03
2022-11-19T23:43:58.752Z,102.67
2022-11-19T23:46:29.136Z,111.23
2022-11-19T23:48:58.550Z,114.70
2022-11-19T23:51:28.285Z,115.23
2022-11-19T23:53:56.732Z,108.47
2022-11-19T23:56:25.799Z,135.20
2022-11-19T23:58:54.305Z,123.40
